MTN8310 KEWR-KBOS
Flight info
| Callsign | MTN8310 |
|---|---|
| Flight time | N/A |
| Altitude | 7000 |
| Route | MERIT SOFEE WUGLA BBOGG BENNN |
| Aircraft | C208/L-SDFGR/C |
Departure
| Time | 2026-05-05 23:32 |
|---|---|
| Airport | Newark Liberty International Airport (KEWR) |
Arrival
| Time | N/A |
|---|---|
| Airport | Boston Logan International Airport (KBOS) |
| Time | Latitude | Longitude | Altitude | Speed | Heading |
|---|---|---|---|---|---|
| 2026-05-05 23:14 | 40.67755 | -74.18172 | 24 ft | 0 kts | 116° |
| 2026-05-05 23:23 | 40.67755 | -74.18171 | 25 ft | 0 kts | 116° |
| 2026-05-05 23:23 | 40.67738 | -74.18155 | 24 ft | 7 kts | 191° |
| 2026-05-05 23:24 | 40.67704 | -74.18181 | 24 ft | 0 kts | 194° |
| 2026-05-05 23:24 | 40.67703 | -74.18181 | 24 ft | 2 kts | 194° |
| 2026-05-05 23:24 | 40.67680 | -74.18147 | 24 ft | 11 kts | 72° |
| 2026-05-05 23:24 | 40.67765 | -74.18086 | 23 ft | 16 kts | 30° |
| 2026-05-05 23:25 | 40.67862 | -74.18020 | 25 ft | 19 kts | 25° |
| 2026-05-05 23:25 | 40.67992 | -74.17938 | 21 ft | 19 kts | 26° |
| 2026-05-05 23:25 | 40.68120 | -74.17856 | 18 ft | 23 kts | 25° |
| 2026-05-05 23:25 | 40.68253 | -74.17772 | 19 ft | 16 kts | 26° |
| 2026-05-05 23:26 | 40.68365 | -74.17698 | 21 ft | 15 kts | 23° |
| 2026-05-05 23:26 | 40.68473 | -74.17631 | 24 ft | 20 kts | 26° |
| 2026-05-05 23:26 | 40.68604 | -74.17549 | 24 ft | 23 kts | 28° |
| 2026-05-05 23:26 | 40.68685 | -74.17496 | 24 ft | 16 kts | 25° |
| 2026-05-05 23:27 | 40.68795 | -74.17430 | 24 ft | 20 kts | 28° |
| 2026-05-05 23:27 | 40.68921 | -74.17347 | 19 ft | 21 kts | 34° |
| 2026-05-05 23:27 | 40.69040 | -74.17269 | 17 ft | 19 kts | 27° |
| 2026-05-05 23:27 | 40.69164 | -74.17192 | 17 ft | 17 kts | 25° |
| 2026-05-05 23:28 | 40.69271 | -74.17124 | 17 ft | 16 kts | 25° |
| 2026-05-05 23:28 | 40.69377 | -74.17058 | 17 ft | 16 kts | 27° |
| 2026-05-05 23:28 | 40.69470 | -74.17001 | 19 ft | 15 kts | 27° |
| 2026-05-05 23:28 | 40.69583 | -74.16927 | 17 ft | 20 kts | 25° |
| 2026-05-05 23:29 | 40.69701 | -74.16851 | 18 ft | 21 kts | 25° |
| 2026-05-05 23:29 | 40.69793 | -74.16722 | 15 ft | 23 kts | 65° |
| 2026-05-05 23:29 | 40.69903 | -74.16596 | 14 ft | 15 kts | 53° |
| 2026-05-05 23:29 | 40.69906 | -74.16558 | 14 ft | 0 kts | 99° |
| 2026-05-05 23:30 | 40.69906 | -74.16556 | 14 ft | 2 kts | 99° |
| 2026-05-05 23:30 | 40.69900 | -74.16488 | 13 ft | 13 kts | 97° |
| 2026-05-05 23:31 | 40.69881 | -74.16455 | 14 ft | 0 kts | 207° |
| 2026-05-05 23:31 | 40.69776 | -74.16524 | 16 ft | 39 kts | 205° |
| 2026-05-05 23:31 | 40.69415 | -74.16756 | 21 ft | 75 kts | 204° |
| 2026-05-05 23:32 | 40.68864 | -74.17075 | 74 ft | 95 kts | 206° |
| 2026-05-05 23:32 | 40.68223 | -74.17470 | 177 ft | 110 kts | 205° |
| 2026-05-05 23:32 | 40.67513 | -74.17831 | 434 ft | 109 kts | 187° |
| 2026-05-05 23:32 | 40.66746 | -74.18044 | 654 ft | 114 kts | 192° |
| 2026-05-05 23:33 | 40.65992 | -74.18280 | 935 ft | 108 kts | 198° |
| 2026-05-05 23:33 | 40.65271 | -74.18521 | 1220 ft | 106 kts | 198° |
| 2026-05-05 23:33 | 40.64521 | -74.18701 | 1433 ft | 112 kts | 191° |
| 2026-05-05 23:33 | 40.63750 | -74.18341 | 1628 ft | 130 kts | 149° |
| 2026-05-05 23:34 | 40.63231 | -74.17314 | 1768 ft | 149 kts | 112° |
| 2026-05-05 23:34 | 40.63133 | -74.15979 | 2050 ft | 147 kts | 99° |
| 2026-05-05 23:34 | 40.63131 | -74.14548 | 2102 ft | 159 kts | 97° |
| 2026-05-05 23:34 | 40.63145 | -74.13125 | 2316 ft | 157 kts | 98° |
| 2026-05-05 23:35 | 40.63173 | -74.11690 | 2450 ft | 161 kts | 95° |
| 2026-05-05 23:35 | 40.63245 | -74.10201 | 2576 ft | 165 kts | 91° |
| 2026-05-05 23:35 | 40.63527 | -74.08686 | 2698 ft | 171 kts | 73° |
| 2026-05-05 23:35 | 40.63911 | -74.07239 | 2797 ft | 168 kts | 81° |
| 2026-05-05 23:36 | 40.64205 | -74.05749 | 2900 ft | 169 kts | 84° |
| 2026-05-05 23:36 | 40.64574 | -74.04259 | 3005 ft | 176 kts | 65° |
| 2026-05-05 23:36 | 40.65319 | -74.02955 | 3163 ft | 175 kts | 52° |
| 2026-05-05 23:36 | 40.66146 | -74.01808 | 3322 ft | 175 kts | 40° |
| 2026-05-05 23:37 | 40.67124 | -74.00745 | 3293 ft | 189 kts | 46° |
| 2026-05-05 23:37 | 40.67991 | -73.99484 | 3524 ft | 179 kts | 47° |
| 2026-05-05 23:37 | 40.68911 | -73.98437 | 3744 ft | 173 kts | 32° |
| 2026-05-05 23:37 | 40.69904 | -73.97562 | 3934 ft | 170 kts | 30° |
| 2026-05-05 23:38 | 40.70891 | -73.96708 | 4128 ft | 170 kts | 30° |
| 2026-05-05 23:38 | 40.71887 | -73.95876 | 4316 ft | 169 kts | 27° |
| 2026-05-05 23:38 | 40.72892 | -73.95084 | 4515 ft | 168 kts | 26° |
| 2026-05-05 23:38 | 40.73906 | -73.94328 | 4714 ft | 167 kts | 23° |
| 2026-05-05 23:39 | 40.74933 | -73.93610 | 4912 ft | 167 kts | 22° |
| 2026-05-05 23:39 | 40.75972 | -73.92930 | 5110 ft | 167 kts | 19° |
| 2026-05-05 23:39 | 40.77029 | -73.92288 | 5310 ft | 167 kts | 18° |
| 2026-05-05 23:39 | 40.78103 | -73.91680 | 5519 ft | 168 kts | 15° |
| 2026-05-05 23:40 | 40.79182 | -73.91115 | 5719 ft | 169 kts | 13° |
| 2026-05-05 23:40 | 40.80283 | -73.90584 | 5920 ft | 169 kts | 11° |
| 2026-05-05 23:40 | 40.81400 | -73.90085 | 6125 ft | 169 kts | 9° |
| 2026-05-05 23:40 | 40.82517 | -73.89625 | 6327 ft | 167 kts | 7° |
| 2026-05-05 23:41 | 40.83632 | -73.89209 | 6526 ft | 166 kts | 6° |
| 2026-05-05 23:41 | 40.84751 | -73.88834 | 6722 ft | 166 kts | 4° |
| 2026-05-05 23:41 | 40.85868 | -73.88498 | 6920 ft | 164 kts | 2° |
| 2026-05-05 23:41 | 40.86985 | -73.88195 | 7104 ft | 164 kts | 0° |
| 2026-05-05 23:42 | 40.88153 | -73.87931 | 7121 ft | 176 kts | 358° |
| 2026-05-05 23:42 | 40.89396 | -73.87704 | 7124 ft | 184 kts | 358° |
| 2026-05-05 23:42 | 40.90656 | -73.87195 | 7118 ft | 200 kts | 29° |
| 2026-05-05 23:42 | 40.91764 | -73.86048 | 7121 ft | 204 kts | 31° |
| 2026-05-05 23:43 | 40.92938 | -73.85019 | 7232 ft | 199 kts | 34° |
| 2026-05-05 23:43 | 40.93974 | -73.83860 | 7443 ft | 193 kts | 42° |
| 2026-05-05 23:43 | 40.94895 | -73.82509 | 7435 ft | 202 kts | 50° |
| 2026-05-05 23:43 | 40.95819 | -73.81133 | 7477 ft | 198 kts | 43° |
| 2026-05-05 23:44 | 40.96868 | -73.79911 | 7413 ft | 202 kts | 38° |
| 2026-05-05 23:44 | 40.97888 | -73.78660 | 7499 ft | 197 kts | 42° |
| 2026-05-05 23:44 | 40.98884 | -73.77434 | 7617 ft | 193 kts | 40° |
| 2026-05-05 23:44 | 40.99880 | -73.76262 | 7732 ft | 191 kts | 38° |
| 2026-05-05 23:45 | 41.00894 | -73.75124 | 7855 ft | 192 kts | 36° |
| 2026-05-05 23:45 | 41.01929 | -73.74000 | 7981 ft | 193 kts | 35° |
| 2026-05-05 23:45 | 41.02983 | -73.72894 | 8108 ft | 194 kts | 34° |
| 2026-05-05 23:45 | 41.04060 | -73.71808 | 8233 ft | 194 kts | 33° |
| 2026-05-05 23:46 | 41.05137 | -73.70765 | 8276 ft | 199 kts | 31° |
| 2026-05-05 23:46 | 41.06308 | -73.69689 | 8177 ft | 211 kts | 30° |
| 2026-05-05 23:46 | 41.07362 | -73.68276 | 8030 ft | 222 kts | 59° |
| 2026-05-05 23:46 | 41.08104 | -73.66468 | 7899 ft | 226 kts | 64° |
| 2026-05-05 23:47 | 41.08837 | -73.64611 | 7764 ft | 229 kts | 63° |
| 2026-05-05 23:47 | 41.09579 | -73.62732 | 7625 ft | 231 kts | 64° |
| 2026-05-05 23:47 | 41.10333 | -73.60845 | 7481 ft | 232 kts | 64° |
| 2026-05-05 23:47 | 41.11090 | -73.58951 | 7334 ft | 234 kts | 64° |
| 2026-05-05 23:48 | 41.11852 | -73.57055 | 7188 ft | 232 kts | 64° |
| 2026-05-05 23:48 | 41.12612 | -73.55175 | 7117 ft | 229 kts | 64° |
| 2026-05-05 23:48 | 41.13362 | -73.53348 | 7114 ft | 222 kts | 63° |
| 2026-05-05 23:48 | 41.14090 | -73.51572 | 7104 ft | 217 kts | 63° |
| 2026-05-05 23:49 | 41.14808 | -73.49834 | 7101 ft | 213 kts | 64° |
| 2026-05-05 23:49 | 41.15516 | -73.48127 | 7100 ft | 212 kts | 63° |
| 2026-05-05 23:49 | 41.16213 | -73.46423 | 7103 ft | 210 kts | 63° |
| 2026-05-05 23:49 | 41.16917 | -73.44730 | 7101 ft | 210 kts | 60° |
| 2026-05-05 23:50 | 41.17706 | -73.43100 | 7101 ft | 210 kts | 57° |
| 2026-05-05 23:50 | 41.18500 | -73.41488 | 7105 ft | 208 kts | 57° |
| 2026-05-05 23:50 | 41.19296 | -73.39878 | 7102 ft | 209 kts | 58° |
| 2026-05-05 23:50 | 41.20095 | -73.38271 | 7107 ft | 209 kts | 57° |
| 2026-05-05 23:51 | 41.20895 | -73.36653 | 7107 ft | 209 kts | 58° |
| 2026-05-05 23:51 | 41.21659 | -73.35011 | 7104 ft | 209 kts | 60° |
| 2026-05-05 23:51 | 41.22410 | -73.33358 | 7103 ft | 210 kts | 60° |
| 2026-05-05 23:51 | 41.23160 | -73.31704 | 7103 ft | 209 kts | 60° |
| 2026-05-05 23:52 | 41.23911 | -73.30053 | 7107 ft | 209 kts | 60° |
| 2026-05-05 23:52 | 41.24669 | -73.28387 | 7109 ft | 212 kts | 60° |
| 2026-05-05 23:52 | 41.25434 | -73.26709 | 7108 ft | 212 kts | 60° |
| 2026-05-05 23:52 | 41.25941 | -73.25605 | 7109 ft | 211 kts | 60° |
| 2026-05-05 23:53 | 41.26699 | -73.23940 | 7107 ft | 210 kts | 60° |
| 2026-05-05 23:53 | 41.27452 | -73.22286 | 7103 ft | 209 kts | 61° |
| 2026-05-05 23:53 | 41.28214 | -73.20634 | 7103 ft | 210 kts | 60° |
| 2026-05-05 23:53 | 41.28976 | -73.18974 | 7104 ft | 211 kts | 60° |
| 2026-05-05 23:54 | 41.29740 | -73.17318 | 7119 ft | 210 kts | 60° |
| 2026-05-05 23:54 | 41.30500 | -73.15663 | 7113 ft | 209 kts | 60° |
| 2026-05-05 23:54 | 41.31248 | -73.14011 | 7115 ft | 209 kts | 60° |
| 2026-05-05 23:54 | 41.31997 | -73.12348 | 7115 ft | 209 kts | 60° |
| 2026-05-05 23:55 | 41.32748 | -73.10688 | 7116 ft | 209 kts | 60° |
| 2026-05-05 23:55 | 41.33504 | -73.09039 | 7119 ft | 209 kts | 60° |
| 2026-05-05 23:55 | 41.34251 | -73.07390 | 7124 ft | 207 kts | 60° |
| 2026-05-05 23:55 | 41.34987 | -73.05742 | 7124 ft | 208 kts | 60° |
| 2026-05-05 23:56 | 41.35729 | -73.04101 | 7127 ft | 205 kts | 60° |
| 2026-05-05 23:56 | 41.36461 | -73.02479 | 7117 ft | 203 kts | 59° |
| 2026-05-05 23:56 | 41.37186 | -73.00888 | 7122 ft | 202 kts | 60° |
| 2026-05-05 23:56 | 41.37905 | -72.99281 | 7122 ft | 202 kts | 60° |
| 2026-05-05 23:57 | 41.38632 | -72.97673 | 7125 ft | 204 kts | 60° |
| 2026-05-05 23:57 | 41.39373 | -72.96058 | 7128 ft | 204 kts | 60° |
| 2026-05-05 23:57 | 41.40115 | -72.94438 | 7125 ft | 206 kts | 60° |
| 2026-05-05 23:57 | 41.40858 | -72.92798 | 7127 ft | 206 kts | 60° |
| 2026-05-05 23:58 | 41.41609 | -72.91157 | 7136 ft | 209 kts | 60° |
| 2026-05-05 23:58 | 41.42367 | -72.89504 | 7144 ft | 210 kts | 60° |
| 2026-05-05 23:58 | 41.43130 | -72.87816 | 7137 ft | 214 kts | 60° |
| 2026-05-05 23:58 | 41.43900 | -72.86112 | 7130 ft | 215 kts | 60° |
| 2026-05-05 23:59 | 41.44664 | -72.84423 | 7131 ft | 212 kts | 60° |
| 2026-05-05 23:59 | 41.45420 | -72.82734 | 7130 ft | 212 kts | 60° |
| 2026-05-05 23:59 | 41.46182 | -72.81032 | 7128 ft | 214 kts | 60° |
| 2026-05-05 23:59 | 41.46953 | -72.79327 | 7130 ft | 215 kts | 60° |
| 2026-05-06 00:00 | 41.47729 | -72.77608 | 7130 ft | 216 kts | 60° |
| 2026-05-06 00:00 | 41.48507 | -72.75894 | 7132 ft | 216 kts | 60° |
| 2026-05-06 00:00 | 41.49290 | -72.74174 | 7121 ft | 216 kts | 59° |
| 2026-05-06 00:00 | 41.50061 | -72.72461 | 7124 ft | 215 kts | 59° |
| 2026-05-06 00:01 | 41.50823 | -72.70754 | 7124 ft | 214 kts | 60° |
| 2026-05-06 00:01 | 41.51593 | -72.69051 | 7120 ft | 215 kts | 60° |
| 2026-05-06 00:01 | 41.52370 | -72.67346 | 7122 ft | 215 kts | 60° |
| 2026-05-06 00:01 | 41.53148 | -72.65640 | 7124 ft | 215 kts | 60° |
| 2026-05-06 00:02 | 41.53906 | -72.63958 | 7130 ft | 215 kts | 60° |
| 2026-05-06 00:02 | 41.54696 | -72.62217 | 7142 ft | 217 kts | 60° |
| 2026-05-06 00:02 | 41.55482 | -72.60488 | 7144 ft | 218 kts | 60° |
| 2026-05-06 00:02 | 41.56276 | -72.58754 | 7147 ft | 220 kts | 60° |
| 2026-05-06 00:03 | 41.57071 | -72.57008 | 7145 ft | 220 kts | 60° |
| 2026-05-06 00:03 | 41.57862 | -72.55278 | 7149 ft | 221 kts | 60° |
| 2026-05-06 00:03 | 41.58671 | -72.53521 | 7149 ft | 224 kts | 60° |
| 2026-05-06 00:03 | 41.59490 | -72.51746 | 7155 ft | 225 kts | 60° |
| 2026-05-06 00:04 | 41.60314 | -72.49962 | 7158 ft | 226 kts | 60° |
| 2026-05-06 00:04 | 41.61138 | -72.48170 | 7155 ft | 226 kts | 60° |
| 2026-05-06 00:04 | 41.61958 | -72.46393 | 7156 ft | 223 kts | 60° |
| 2026-05-06 00:04 | 41.62771 | -72.44646 | 7143 ft | 219 kts | 60° |
| 2026-05-06 00:05 | 41.64374 | -72.41191 | 7145 ft | 220 kts | 60° |
| 2026-05-06 00:05 | 41.65175 | -72.39450 | 7149 ft | 219 kts | 60° |
| 2026-05-06 00:05 | 41.65959 | -72.37738 | 7153 ft | 212 kts | 59° |
| 2026-05-06 00:06 | 41.66733 | -72.36071 | 7151 ft | 210 kts | 60° |
| 2026-05-06 00:06 | 41.67493 | -72.34417 | 7148 ft | 208 kts | 60° |
| 2026-05-06 00:06 | 41.68257 | -72.32775 | 7146 ft | 207 kts | 60° |
| 2026-05-06 00:06 | 41.69016 | -72.31141 | 7151 ft | 205 kts | 60° |
| 2026-05-06 00:07 | 41.69759 | -72.29520 | 7162 ft | 204 kts | 60° |
| 2026-05-06 00:07 | 41.70503 | -72.27906 | 7161 ft | 205 kts | 60° |
| 2026-05-06 00:07 | 41.71257 | -72.26289 | 7151 ft | 205 kts | 60° |
| 2026-05-06 00:07 | 41.72017 | -72.24670 | 7160 ft | 206 kts | 60° |
| 2026-05-06 00:08 | 41.72781 | -72.23046 | 7164 ft | 206 kts | 59° |
| 2026-05-06 00:08 | 41.73540 | -72.21413 | 7167 ft | 207 kts | 60° |
| 2026-05-06 00:08 | 41.74297 | -72.19780 | 7166 ft | 206 kts | 59° |
| 2026-05-06 00:08 | 41.75051 | -72.18148 | 7156 ft | 206 kts | 60° |
| 2026-05-06 00:09 | 41.75813 | -72.16519 | 7156 ft | 207 kts | 59° |
| 2026-05-06 00:09 | 41.76583 | -72.14881 | 7167 ft | 208 kts | 60° |
| 2026-05-06 00:09 | 41.77354 | -72.13234 | 7169 ft | 210 kts | 60° |
| 2026-05-06 00:09 | 41.78128 | -72.11575 | 7171 ft | 211 kts | 60° |
| 2026-05-06 00:10 | 41.78909 | -72.09907 | 7171 ft | 211 kts | 59° |
| 2026-05-06 00:10 | 41.79687 | -72.08239 | 7174 ft | 210 kts | 60° |
| 2026-05-06 00:10 | 41.80466 | -72.06582 | 7170 ft | 209 kts | 60° |
| 2026-05-06 00:10 | 41.81249 | -72.04935 | 7163 ft | 210 kts | 60° |
| 2026-05-06 00:11 | 41.82034 | -72.03277 | 7168 ft | 211 kts | 60° |
| 2026-05-06 00:11 | 41.82824 | -72.01609 | 7161 ft | 212 kts | 59° |
| 2026-05-06 00:11 | 41.83618 | -71.99937 | 7167 ft | 213 kts | 59° |
| 2026-05-06 00:11 | 41.84410 | -71.98253 | 7155 ft | 212 kts | 59° |
| 2026-05-06 00:12 | 41.85185 | -71.96585 | 7158 ft | 210 kts | 59° |
| 2026-05-06 00:12 | 41.85960 | -71.94918 | 7165 ft | 211 kts | 60° |
| 2026-05-06 00:12 | 41.86742 | -71.93244 | 7160 ft | 213 kts | 60° |
| 2026-05-06 00:12 | 41.87534 | -71.91564 | 7158 ft | 213 kts | 60° |
| 2026-05-06 00:13 | 41.88327 | -71.89886 | 7155 ft | 213 kts | 59° |
| 2026-05-06 00:13 | 41.89082 | -71.88195 | 7154 ft | 213 kts | 64° |
| 2026-05-06 00:13 | 41.89691 | -71.86393 | 7149 ft | 211 kts | 75° |
| 2026-05-06 00:13 | 41.90104 | -71.84528 | 7163 ft | 205 kts | 84° |
| 2026-05-06 00:14 | 41.90323 | -71.82665 | 7159 ft | 198 kts | 94° |
| 2026-05-06 00:14 | 41.90350 | -71.80853 | 7152 ft | 191 kts | 104° |
| 2026-05-06 00:14 | 41.90191 | -71.79123 | 7152 ft | 184 kts | 114° |
| 2026-05-06 00:14 | 41.89853 | -71.77477 | 7168 ft | 183 kts | 123° |
| 2026-05-06 00:15 | 41.89334 | -71.75928 | 7174 ft | 181 kts | 133° |
| 2026-05-06 00:15 | 41.88662 | -71.74531 | 7179 ft | 176 kts | 142° |
| 2026-05-06 00:15 | 41.87857 | -71.73322 | 7177 ft | 172 kts | 151° |
| 2026-05-06 00:15 | 41.86949 | -71.72324 | 7177 ft | 165 kts | 160° |
| 2026-05-06 00:16 | 41.85996 | -71.71486 | 7174 ft | 171 kts | 153° |
| 2026-05-06 00:16 | 41.85416 | -71.69963 | 7174 ft | 201 kts | 108° |
| 2026-05-06 00:16 | 41.85692 | -71.68063 | 7172 ft | 218 kts | 63° |
| 2026-05-06 00:16 | 41.86760 | -71.66678 | 7172 ft | 212 kts | 24° |
| 2026-05-06 00:17 | 41.88041 | -71.65703 | 7175 ft | 214 kts | 30° |
| 2026-05-06 00:17 | 41.89070 | -71.64260 | 7168 ft | 216 kts | 60° |
| 2026-05-06 00:17 | 41.89791 | -71.62496 | 7175 ft | 216 kts | 65° |
| 2026-05-06 00:17 | 41.90518 | -71.60735 | 7180 ft | 216 kts | 62° |
| 2026-05-06 00:18 | 41.91304 | -71.59011 | 7181 ft | 216 kts | 60° |
| 2026-05-06 00:18 | 41.92092 | -71.57300 | 7180 ft | 215 kts | 60° |
| 2026-05-06 00:18 | 41.92865 | -71.55592 | 7178 ft | 214 kts | 60° |
| 2026-05-06 00:18 | 41.93610 | -71.53937 | 7155 ft | 192 kts | 62° |
| 2026-05-06 00:19 | 41.94245 | -71.52509 | 7114 ft | 167 kts | 63° |
| 2026-05-06 00:19 | 41.94830 | -71.51210 | 6901 ft | 161 kts | 63° |
| 2026-05-06 00:19 | 41.95402 | -71.49944 | 6694 ft | 155 kts | 63° |
| 2026-05-06 00:19 | 41.95944 | -71.48754 | 6502 ft | 147 kts | 62° |
| 2026-05-06 00:20 | 41.96470 | -71.47581 | 6259 ft | 145 kts | 63° |
| 2026-05-06 00:20 | 41.96997 | -71.46416 | 5963 ft | 147 kts | 62° |
| 2026-05-06 00:20 | 41.97518 | -71.45265 | 5758 ft | 142 kts | 63° |
| 2026-05-06 00:20 | 41.98039 | -71.44108 | 5473 ft | 145 kts | 63° |
| 2026-05-06 00:21 | 41.98553 | -71.42983 | 5236 ft | 139 kts | 63° |
| 2026-05-06 00:21 | 41.99064 | -71.41837 | 4943 ft | 142 kts | 65° |